createdAt,value
2018-11-05T00:03:34.396Z,11.40
2018-11-05T00:08:37.585Z,10.90
2018-11-05T00:13:40.766Z,11.10
2018-11-05T00:18:43.953Z,11.20
2018-11-05T00:23:47.148Z,10.90
2018-11-05T00:28:50.344Z,10.90
2018-11-05T00:33:53.525Z,10.80
2018-11-05T00:38:56.712Z,11.00
2018-11-05T00:43:59.866Z,10.80
2018-11-05T00:49:03.308Z,10.90
2018-11-05T00:54:06.532Z,10.90
2018-11-05T00:59:09.739Z,10.80
2018-11-05T01:04:12.921Z,10.90
2018-11-05T01:09:16.116Z,10.80
2018-11-05T01:14:19.283Z,10.90
2018-11-05T01:19:22.452Z,11.00
2018-11-05T01:24:25.623Z,10.90
2018-11-05T01:29:28.788Z,10.80
2018-11-05T01:34:31.939Z,10.90
2018-11-05T01:39:35.139Z,11.00
2018-11-05T01:44:38.427Z,10.90
2018-11-05T01:49:41.635Z,10.90
2018-11-05T01:54:44.911Z,10.70
2018-11-05T01:59:48.225Z,10.80
2018-11-05T02:04:51.473Z,10.80
2018-11-05T02:09:54.696Z,10.80
2018-11-05T02:14:57.955Z,10.60
2018-11-05T02:20:01.147Z,10.50
2018-11-05T02:25:04.689Z,10.80
2018-11-05T02:30:11.972Z,10.80
2018-11-05T02:35:16.120Z,10.70
2018-11-05T02:40:20.588Z,10.60
2018-11-05T02:45:23.768Z,10.90
2018-11-05T02:50:26.952Z,10.90
2018-11-05T02:55:30.155Z,10.50
2018-11-05T03:00:33.412Z,10.70
2018-11-05T03:05:36.620Z,10.50
2018-11-05T03:10:39.816Z,10.60
2018-11-05T03:15:43.047Z,10.60
2018-11-05T03:20:46.272Z,10.60
2018-11-05T03:25:49.497Z,10.60
2018-11-05T03:30:52.716Z,10.60
2018-11-05T03:35:55.977Z,10.60
2018-11-05T03:40:59.180Z,10.60
2018-11-05T03:46:02.378Z,10.50
2018-11-05T03:51:05.585Z,10.50
2018-11-05T03:56:08.891Z,10.60
2018-11-05T04:01:12.022Z,10.50
2018-11-05T04:06:15.272Z,10.60
2018-11-05T04:11:18.436Z,10.60
2018-11-05T04:16:21.641Z,10.50
2018-11-05T04:21:29.062Z,10.60
2018-11-05T04:26:32.279Z,10.70
2018-11-05T04:31:35.479Z,10.60
2018-11-05T04:36:38.683Z,10.70
2018-11-05T04:41:41.915Z,10.60
2018-11-05T04:46:45.112Z,10.50
2018-11-05T04:51:48.312Z,10.60
2018-11-05T04:56:51.499Z,10.50
2018-11-05T05:01:54.723Z,10.50
2018-11-05T05:06:57.903Z,10.50
2018-11-05T05:12:01.094Z,10.60
2018-11-05T05:17:04.306Z,10.10
2018-11-05T05:22:07.488Z,10.60
2018-11-05T05:27:10.721Z,10.50
2018-11-05T05:32:13.936Z,10.60
2018-11-05T05:37:17.150Z,10.60
2018-11-05T05:42:20.380Z,10.50
2018-11-05T05:47:23.592Z,10.50
2018-11-05T05:52:26.844Z,10.50
2018-11-05T05:57:30.348Z,10.30
2018-11-05T06:02:33.577Z,10.60
2018-11-05T06:07:37.168Z,10.30
2018-11-05T06:12:40.368Z,10.30
2018-11-05T06:17:43.564Z,10.40
2018-11-05T06:22:47.464Z,10.50
2018-11-05T06:27:50.669Z,10.30
2018-11-05T06:32:53.897Z,10.40
2018-11-05T06:37:57.102Z,10.30
2018-11-05T06:43:00.320Z,10.10
2018-11-05T06:48:03.528Z,10.60
2018-11-05T06:53:06.763Z,10.10
2018-11-05T06:58:09.968Z,10.20
2018-11-05T07:03:13.182Z,10.50
2018-11-05T07:08:16.416Z,10.30
2018-11-05T07:13:19.634Z,10.30
2018-11-05T07:18:22.929Z,10.30
2018-11-05T07:23:26.061Z,10.30
2018-11-05T07:28:29.281Z,10.20
2018-11-05T07:33:32.732Z,10.20
2018-11-05T07:38:35.734Z,10.30
2018-11-05T07:43:38.944Z,10.30
2018-11-05T07:48:42.176Z,10.30
2018-11-05T07:53:45.422Z,10.20
2018-11-05T07:58:48.616Z,10.10
2018-11-05T08:03:51.847Z,10.50
2018-11-05T08:08:55.356Z,10.70
2018-11-05T08:13:58.575Z,10.50
2018-11-05T08:19:01.820Z,10.70
2018-11-05T08:24:05.453Z,10.50
2018-11-05T08:29:08.644Z,10.70
2018-11-05T08:34:11.897Z,10.50
2018-11-05T08:39:15.103Z,10.60
2018-11-05T08:44:18.328Z,10.50
2018-11-05T08:49:21.549Z,10.60
2018-11-05T08:54:24.847Z,10.40
2018-11-05T08:59:28.048Z,10.70
2018-11-05T09:04:31.302Z,10.50
2018-11-05T09:09:34.504Z,10.60
2018-11-05T09:14:37.717Z,10.60
2018-11-05T09:19:40.956Z,10.60
2018-11-05T09:24:44.180Z,10.80
2018-11-05T09:29:47.396Z,10.50
2018-11-05T09:34:50.616Z,10.80
2018-11-05T09:39:53.828Z,10.70
2018-11-05T09:44:57.063Z,10.80
2018-11-05T09:50:00.287Z,11.00
2018-11-05T09:55:03.545Z,10.70
2018-11-05T10:00:10.201Z,10.90
2018-11-05T10:05:14.085Z,10.90
2018-11-05T10:10:17.926Z,11.00
2018-11-05T10:15:21.088Z,11.00
2018-11-05T10:20:25.138Z,10.80
2018-11-05T10:25:28.339Z,11.00
2018-11-05T10:30:31.788Z,10.90
2018-11-05T10:35:40.392Z,10.90
2018-11-05T10:40:43.618Z,11.00
2018-11-05T10:45:46.880Z,11.20
2018-11-05T10:50:50.093Z,11.40
2018-11-05T10:55:53.289Z,11.40
2018-11-05T11:01:02.023Z,11.10
2018-11-05T11:06:06.292Z,11.30
2018-11-05T11:11:09.499Z,11.20
2018-11-05T11:16:12.691Z,11.20
2018-11-05T11:21:15.912Z,11.30
2018-11-05T11:26:19.154Z,11.30
2018-11-05T11:31:22.392Z,11.50
2018-11-05T11:36:25.779Z,11.20
2018-11-05T11:41:28.981Z,11.60
2018-11-05T11:46:32.277Z,11.50
2018-11-05T11:51:35.484Z,11.90
2018-11-05T11:56:38.687Z,11.70
2018-11-05T12:01:47.352Z,11.60
2018-11-05T12:06:51.608Z,11.90
2018-11-05T12:11:54.809Z,11.80
2018-11-05T12:16:58.001Z,12.10
2018-11-05T12:22:01.248Z,12.00
2018-11-05T12:27:04.556Z,11.90
2018-11-05T12:32:07.800Z,12.10
2018-11-05T12:37:11.020Z,11.90
2018-11-05T12:42:14.283Z,12.10
2018-11-05T12:47:17.544Z,12.20
2018-11-05T12:52:20.782Z,12.10
2018-11-05T12:57:24.023Z,12.20
2018-11-05T13:02:27.308Z,12.20
2018-11-05T13:07:30.565Z,11.90
2018-11-05T13:12:33.792Z,12.30
2018-11-05T13:17:37.636Z,12.20
2018-11-05T13:22:40.938Z,12.10
2018-11-05T13:27:45.316Z,12.20
2018-11-05T13:32:48.523Z,12.10
2018-11-05T13:37:52.262Z,12.40
2018-11-05T13:42:55.116Z,12.40
2018-11-05T13:47:58.821Z,12.20
2018-11-05T13:53:01.552Z,12.40
2018-11-05T13:58:05.124Z,12.60
2018-11-05T14:03:08.365Z,12.50
2018-11-05T14:08:11.593Z,12.60
2018-11-05T14:13:14.808Z,12.50
2018-11-05T14:18:18.095Z,12.60
2018-11-05T14:23:21.248Z,12.70
2018-11-05T14:28:24.684Z,12.60
2018-11-05T14:33:27.712Z,12.60
2018-11-05T14:38:30.941Z,12.70
2018-11-05T14:43:34.232Z,12.60
2018-11-05T14:48:37.470Z,12.60
2018-11-05T14:53:40.720Z,12.60
2018-11-05T14:58:43.944Z,12.60
2018-11-05T15:03:47.174Z,12.40
2018-11-05T15:08:50.425Z,12.60
2018-11-05T15:13:53.649Z,12.70
2018-11-05T15:18:57.155Z,12.50
2018-11-05T15:24:00.123Z,12.60
2018-11-05T15:29:03.372Z,12.60
2018-11-05T15:34:06.657Z,12.40
2018-11-05T15:39:09.936Z,12.70
2018-11-05T15:44:13.168Z,12.60
2018-11-05T15:49:16.436Z,12.60
2018-11-05T15:54:19.708Z,12.50
2018-11-05T15:59:22.896Z,13.80
2018-11-05T16:04:27.051Z,14.80
2018-11-05T16:09:30.271Z,15.30
2018-11-05T16:14:33.581Z,15.90
2018-11-05T16:19:36.792Z,15.90
2018-11-05T16:24:40.008Z,16.30
2018-11-05T16:29:43.220Z,16.20
2018-11-05T16:34:46.458Z,16.40
2018-11-05T16:39:49.797Z,15.50
2018-11-05T16:44:52.875Z,14.90
2018-11-05T16:49:56.078Z,14.10
2018-11-05T16:54:59.267Z,14.10
2018-11-05T17:00:02.501Z,13.90
2018-11-05T17:05:05.700Z,13.80
2018-11-05T17:10:10.275Z,13.80
2018-11-05T17:15:15.551Z,13.60
2018-11-05T17:20:19.815Z,13.60
2018-11-05T17:25:23.047Z,13.60
2018-11-05T17:30:26.241Z,13.50
2018-11-05T17:35:29.468Z,13.40
2018-11-05T17:40:32.677Z,13.50
2018-11-05T17:45:35.912Z,13.10
2018-11-05T17:50:39.137Z,13.20
2018-11-05T17:55:42.333Z,13.50
2018-11-05T18:00:45.550Z,13.10
2018-11-05T18:05:48.837Z,13.10
2018-11-05T18:10:52.689Z,13.20
2018-11-05T18:15:55.890Z,13.00
2018-11-05T18:20:59.076Z,13.10
2018-11-05T18:26:02.307Z,13.00
2018-11-05T18:31:05.851Z,13.10
2018-11-05T18:36:09.015Z,13.00
2018-11-05T18:41:12.273Z,12.80
2018-11-05T18:46:16.172Z,12.90
2018-11-05T18:51:19.402Z,12.90
2018-11-05T18:56:22.787Z,13.00
2018-11-05T19:01:25.953Z,13.00
2018-11-05T19:06:29.140Z,13.00
2018-11-05T19:11:32.328Z,12.80
2018-11-05T19:16:35.582Z,13.00
2018-11-05T19:21:38.784Z,12.80
2018-11-05T19:26:41.989Z,12.90
2018-11-05T19:31:46.192Z,13.00
2018-11-05T19:36:49.520Z,12.90
2018-11-05T19:41:52.781Z,12.90
2018-11-05T19:46:55.917Z,13.10
2018-11-05T19:51:59.132Z,12.90
2018-11-05T19:57:02.784Z,12.60
2018-11-05T20:02:06.969Z,12.70
2018-11-05T20:07:10.183Z,12.70
2018-11-05T20:12:13.427Z,12.70
2018-11-05T20:17:16.617Z,13.00
2018-11-05T20:22:19.926Z,12.70
2018-11-05T20:27:23.044Z,12.60
2018-11-05T20:32:26.951Z,13.00
2018-11-05T20:37:29.568Z,12.50
2018-11-05T20:42:32.805Z,12.60
2018-11-05T20:47:36.047Z,12.50
2018-11-05T20:52:39.585Z,12.60
2018-11-05T20:57:43.088Z,12.70
2018-11-05T21:02:46.273Z,12.60
2018-11-05T21:07:49.479Z,12.70
2018-11-05T21:12:52.677Z,12.50
2018-11-05T21:17:55.990Z,12.50
2018-11-05T21:22:59.202Z,12.60
2018-11-05T21:28:02.371Z,12.60
2018-11-05T21:33:05.748Z,12.70
2018-11-05T21:38:08.874Z,12.50
2018-11-05T21:43:12.076Z,12.60
2018-11-05T21:48:16.363Z,12.60
2018-11-05T21:53:19.604Z,12.60
2018-11-05T21:58:22.792Z,12.50
2018-11-05T22:03:26.050Z,12.60
2018-11-05T22:08:29.222Z,12.70
2018-11-05T22:13:32.434Z,12.50
2018-11-05T22:18:35.628Z,12.60
2018-11-05T22:23:38.835Z,12.60
2018-11-05T22:28:42.044Z,12.60
2018-11-05T22:33:45.265Z,12.60
2018-11-05T22:38:48.495Z,12.50
2018-11-05T22:43:51.729Z,12.40
2018-11-05T22:48:54.944Z,12.30
2018-11-05T22:53:58.139Z,12.30
2018-11-05T22:59:01.339Z,12.60
2018-11-05T23:04:04.961Z,12.50
2018-11-05T23:09:08.236Z,12.40
2018-11-05T23:14:11.440Z,12.60
2018-11-05T23:19:14.699Z,12.60
2018-11-05T23:24:17.917Z,12.50
2018-11-05T23:29:21.141Z,12.50
2018-11-05T23:34:24.359Z,12.30
2018-11-05T23:39:27.547Z,12.50
2018-11-05T23:44:30.751Z,12.40
2018-11-05T23:49:33.969Z,12.30
2018-11-05T23:54:37.229Z,12.20
2018-11-05T23:59:40.452Z,12.20
